sensor_id;sensor_type;location;lat;lon;timestamp;temperature;humidity
16995;DHT22;8614;48.522;9.206;2023-07-20T00:00:06;20.30;99.90
16995;DHT22;8614;48.522;9.206;2023-07-20T00:02:38;20.20;99.90
16995;DHT22;8614;48.522;9.206;2023-07-20T00:05:06;20.20;99.90
16995;DHT22;8614;48.522;9.206;2023-07-20T00:07:34;20.20;99.90
16995;DHT22;8614;48.522;9.206;2023-07-20T00:10:01;20.20;99.90
16995;DHT22;8614;48.522;9.206;2023-07-20T00:12:27;20.20;99.90
16995;DHT22;8614;48.522;9.206;2023-07-20T00:14:54;20.20;99.90
16995;DHT22;8614;48.522;9.206;2023-07-20T00:17:21;20.20;99.90
16995;DHT22;8614;48.522;9.206;2023-07-20T00:19:48;20.20;99.90
16995;DHT22;8614;48.522;9.206;2023-07-20T00:22:14;20.20;99.90
16995;DHT22;8614;48.522;9.206;2023-07-20T00:24:43;20.30;99.90
16995;DHT22;8614;48.522;9.206;2023-07-20T00:27:09;20.20;99.90
16995;DHT22;8614;48.522;9.206;2023-07-20T00:29:36;20.20;99.90
16995;DHT22;8614;48.522;9.206;2023-07-20T00:32:04;20.10;99.90
16995;DHT22;8614;48.522;9.206;2023-07-20T00:34:32;20.20;99.90
16995;DHT22;8614;48.522;9.206;2023-07-20T00:36:58;20.10;99.90
16995;DHT22;8614;48.522;9.206;2023-07-20T00:39:25;20.10;99.90
16995;DHT22;8614;48.522;9.206;2023-07-20T00:41:53;20.10;99.90
16995;DHT22;8614;48.522;9.206;2023-07-20T00:44:20;20.10;99.90
16995;DHT22;8614;48.522;9.206;2023-07-20T00:46:47;20.00;99.90
16995;DHT22;8614;48.522;9.206;2023-07-20T00:49:14;20.10;99.90
16995;DHT22;8614;48.522;9.206;2023-07-20T00:51:41;20.00;99.90
16995;DHT22;8614;48.522;9.206;2023-07-20T00:54:08;20.00;99.90
16995;DHT22;8614;48.522;9.206;2023-07-20T00:56:36;20.00;99.90
16995;DHT22;8614;48.522;9.206;2023-07-20T00:59:04;20.00;99.90
16995;DHT22;8614;48.522;9.206;2023-07-20T01:01:31;19.90;99.90
16995;DHT22;8614;48.522;9.206;2023-07-20T01:03:58;19.80;99.90
16995;DHT22;8614;48.522;9.206;2023-07-20T01:06:31;19.80;99.90
16995;DHT22;8614;48.522;9.206;2023-07-20T01:09:07;19.70;99.90
16995;DHT22;8614;48.522;9.206;2023-07-20T01:11:38;19.70;99.90
16995;DHT22;8614;48.522;9.206;2023-07-20T01:14:08;19.70;99.90
16995;DHT22;8614;48.522;9.206;2023-07-20T01:16:36;19.70;99.90
16995;DHT22;8614;48.522;9.206;2023-07-20T01:19:02;19.70;99.90
16995;DHT22;8614;48.522;9.206;2023-07-20T01:21:33;19.70;99.90
16995;DHT22;8614;48.522;9.206;2023-07-20T01:27:31;19.80;99.90
16995;DHT22;8614;48.522;9.206;2023-07-20T01:30:38;19.80;99.90
16995;DHT22;8614;48.522;9.206;2023-07-20T01:33:12;19.80;99.90
16995;DHT22;8614;48.522;9.206;2023-07-20T01:35:41;19.70;99.90
16995;DHT22;8614;48.522;9.206;2023-07-20T01:38:11;19.70;99.90
16995;DHT22;8614;48.522;9.206;2023-07-20T01:40:38;19.70;99.90
16995;DHT22;8614;48.522;9.206;2023-07-20T01:43:06;19.60;99.90
16995;DHT22;8614;48.522;9.206;2023-07-20T01:45:33;19.60;99.90
16995;DHT22;8614;48.522;9.206;2023-07-20T01:48:00;19.60;99.90
16995;DHT22;8614;48.522;9.206;2023-07-20T01:50:28;19.60;99.90
16995;DHT22;8614;48.522;9.206;2023-07-20T01:52:55;19.50;99.90
16995;DHT22;8614;48.522;9.206;2023-07-20T01:55:22;19.40;99.90
16995;DHT22;8614;48.522;9.206;2023-07-20T01:57:49;19.40;99.90
16995;DHT22;8614;48.522;9.206;2023-07-20T02:00:16;19.30;99.90
16995;DHT22;8614;48.522;9.206;2023-07-20T02:02:44;19.30;99.90
16995;DHT22;8614;48.522;9.206;2023-07-20T02:05:11;19.20;99.90
16995;DHT22;8614;48.522;9.206;2023-07-20T02:07:39;19.20;99.90
16995;DHT22;8614;48.522;9.206;2023-07-20T02:10:06;19.20;99.90
16995;DHT22;8614;48.522;9.206;2023-07-20T02:12:34;19.10;99.90
16995;DHT22;8614;48.522;9.206;2023-07-20T02:15:01;19.10;99.90
16995;DHT22;8614;48.522;9.206;2023-07-20T02:17:29;19.10;99.90
16995;DHT22;8614;48.522;9.206;2023-07-20T02:19:56;19.00;99.90
16995;DHT22;8614;48.522;9.206;2023-07-20T02:22:24;19.00;99.90
16995;DHT22;8614;48.522;9.206;2023-07-20T02:24:52;18.90;99.90
16995;DHT22;8614;48.522;9.206;2023-07-20T02:27:19;18.90;99.90
16995;DHT22;8614;48.522;9.206;2023-07-20T02:29:46;18.90;99.90
16995;DHT22;8614;48.522;9.206;2023-07-20T02:32:12;18.90;99.90
16995;DHT22;8614;48.522;9.206;2023-07-20T02:34:40;18.80;99.90
16995;DHT22;8614;48.522;9.206;2023-07-20T02:37:07;18.80;99.90
16995;DHT22;8614;48.522;9.206;2023-07-20T02:39:34;18.70;99.90
16995;DHT22;8614;48.522;9.206;2023-07-20T02:42:03;18.70;99.90
16995;DHT22;8614;48.522;9.206;2023-07-20T02:44:30;18.60;99.90
16995;DHT22;8614;48.522;9.206;2023-07-20T02:46:56;18.60;99.90
16995;DHT22;8614;48.522;9.206;2023-07-20T02:49:23;18.60;99.90
16995;DHT22;8614;48.522;9.206;2023-07-20T02:51:50;18.60;99.90
16995;DHT22;8614;48.522;9.206;2023-07-20T02:54:17;18.60;99.90
16995;DHT22;8614;48.522;9.206;2023-07-20T02:56:44;18.50;99.90
16995;DHT22;8614;48.522;9.206;2023-07-20T02:59:12;18.50;99.90
16995;DHT22;8614;48.522;9.206;2023-07-20T03:01:39;18.40;99.90
16995;DHT22;8614;48.522;9.206;2023-07-20T03:04:08;18.40;99.90
16995;DHT22;8614;48.522;9.206;2023-07-20T03:06:36;18.40;99.90
16995;DHT22;8614;48.522;9.206;2023-07-20T03:09:03;18.40;99.90
16995;DHT22;8614;48.522;9.206;2023-07-20T03:11:32;18.30;99.90
16995;DHT22;8614;48.522;9.206;2023-07-20T03:13:58;18.30;99.90
16995;DHT22;8614;48.522;9.206;2023-07-20T03:16:27;18.20;99.90
16995;DHT22;8614;48.522;9.206;2023-07-20T03:18:54;18.20;99.90
16995;DHT22;8614;48.522;9.206;2023-07-20T03:21:20;18.10;99.90
16995;DHT22;8614;48.522;9.206;2023-07-20T03:23:47;18.00;99.90
16995;DHT22;8614;48.522;9.206;2023-07-20T03:26:14;18.00;99.90
16995;DHT22;8614;48.522;9.206;2023-07-20T03:28:44;17.90;99.90
16995;DHT22;8614;48.522;9.206;2023-07-20T03:31:11;17.90;99.90
16995;DHT22;8614;48.522;9.206;2023-07-20T03:33:41;17.80;99.90
16995;DHT22;8614;48.522;9.206;2023-07-20T03:36:08;17.70;99.90
16995;DHT22;8614;48.522;9.206;2023-07-20T03:38:35;17.70;99.90
16995;DHT22;8614;48.522;9.206;2023-07-20T03:41:02;17.60;99.90
16995;DHT22;8614;48.522;9.206;2023-07-20T03:43:29;17.50;99.90
16995;DHT22;8614;48.522;9.206;2023-07-20T03:45:56;17.50;99.90
16995;DHT22;8614;48.522;9.206;2023-07-20T03:48:24;17.50;99.90
16995;DHT22;8614;48.522;9.206;2023-07-20T03:50:53;17.50;99.90
16995;DHT22;8614;48.522;9.206;2023-07-20T03:53:20;17.40;99.90
16995;DHT22;8614;48.522;9.206;2023-07-20T03:55:48;17.40;99.90
16995;DHT22;8614;48.522;9.206;2023-07-20T03:58:15;17.40;99.90
16995;DHT22;8614;48.522;9.206;2023-07-20T04:00:44;17.40;99.90
16995;DHT22;8614;48.522;9.206;2023-07-20T04:03:11;17.40;99.90
16995;DHT22;8614;48.522;9.206;2023-07-20T04:05:38;17.40;99.90
16995;DHT22;8614;48.522;9.206;2023-07-20T04:08:06;17.40;99.90
16995;DHT22;8614;48.522;9.206;2023-07-20T04:10:33;17.40;99.90
16995;DHT22;8614;48.522;9.206;2023-07-20T04:13:00;17.40;99.90
16995;DHT22;8614;48.522;9.206;2023-07-20T04:15:27;17.30;99.90
16995;DHT22;8614;48.522;9.206;2023-07-20T04:17:54;17.30;99.90
16995;DHT22;8614;48.522;9.206;2023-07-20T04:20:22;17.30;99.90
16995;DHT22;8614;48.522;9.206;2023-07-20T04:22:49;17.20;99.90
16995;DHT22;8614;48.522;9.206;2023-07-20T04:25:17;17.20;99.90
16995;DHT22;8614;48.522;9.206;2023-07-20T04:27:44;17.30;99.90
16995;DHT22;8614;48.522;9.206;2023-07-20T04:30:12;17.30;99.90
16995;DHT22;8614;48.522;9.206;2023-07-20T04:32:39;17.40;99.90
16995;DHT22;8614;48.522;9.206;2023-07-20T04:35:17;17.50;99.90
16995;DHT22;8614;48.522;9.206;2023-07-20T04:37:47;17.60;99.90
16995;DHT22;8614;48.522;9.206;2023-07-20T04:40:18;17.70;99.90
16995;DHT22;8614;48.522;9.206;2023-07-20T04:42:45;17.70;99.90
16995;DHT22;8614;48.522;9.206;2023-07-20T04:45:12;17.80;99.90
16995;DHT22;8614;48.522;9.206;2023-07-20T04:47:39;17.80;99.90
16995;DHT22;8614;48.522;9.206;2023-07-20T04:50:06;18.00;99.90
16995;DHT22;8614;48.522;9.206;2023-07-20T04:52:33;18.10;99.90
16995;DHT22;8614;48.522;9.206;2023-07-20T04:55:00;18.40;99.90
16995;DHT22;8614;48.522;9.206;2023-07-20T04:57:31;18.50;99.90
16995;DHT22;8614;48.522;9.206;2023-07-20T04:59:58;18.60;99.90
16995;DHT22;8614;48.522;9.206;2023-07-20T05:02:25;18.70;99.90
16995;DHT22;8614;48.522;9.206;2023-07-20T05:04:53;18.90;99.90
16995;DHT22;8614;48.522;9.206;2023-07-20T05:07:19;19.10;99.90
16995;DHT22;8614;48.522;9.206;2023-07-20T05:09:46;19.30;99.90
16995;DHT22;8614;48.522;9.206;2023-07-20T05:12:13;19.50;99.90
16995;DHT22;8614;48.522;9.206;2023-07-20T05:14:41;19.60;99.90
16995;DHT22;8614;48.522;9.206;2023-07-20T05:17:08;19.60;99.90
16995;DHT22;8614;48.522;9.206;2023-07-20T05:19:35;19.80;99.90
16995;DHT22;8614;48.522;9.206;2023-07-20T05:22:02;19.90;99.90
16995;DHT22;8614;48.522;9.206;2023-07-20T05:24:31;20.00;99.90
16995;DHT22;8614;48.522;9.206;2023-07-20T05:26:58;20.00;99.90
16995;DHT22;8614;48.522;9.206;2023-07-20T05:29:25;20.00;99.90
16995;DHT22;8614;48.522;9.206;2023-07-20T05:31:53;20.00;99.90
16995;DHT22;8614;48.522;9.206;2023-07-20T05:34:20;20.00;99.90
16995;DHT22;8614;48.522;9.206;2023-07-20T05:36:47;20.00;99.90
16995;DHT22;8614;48.522;9.206;2023-07-20T05:39:14;20.00;99.90
16995;DHT22;8614;48.522;9.206;2023-07-20T05:41:41;20.00;99.90
16995;DHT22;8614;48.522;9.206;2023-07-20T05:44:08;19.90;99.90
16995;DHT22;8614;48.522;9.206;2023-07-20T05:46:34;19.90;99.90
16995;DHT22;8614;48.522;9.206;2023-07-20T05:49:03;19.90;99.90
16995;DHT22;8614;48.522;9.206;2023-07-20T05:51:29;19.90;99.90
16995;DHT22;8614;48.522;9.206;2023-07-20T05:53:56;19.90;99.90
16995;DHT22;8614;48.522;9.206;2023-07-20T05:56:23;20.00;99.90
16995;DHT22;8614;48.522;9.206;2023-07-20T05:58:50;20.00;99.90
16995;DHT22;8614;48.522;9.206;2023-07-20T06:01:18;20.10;99.90
16995;DHT22;8614;48.522;9.206;2023-07-20T06:03:45;20.20;99.90
16995;DHT22;8614;48.522;9.206;2023-07-20T06:06:13;20.30;99.90
16995;DHT22;8614;48.522;9.206;2023-07-20T06:08:40;20.40;99.90
16995;DHT22;8614;48.522;9.206;2023-07-20T06:11:07;20.40;99.90
16995;DHT22;8614;48.522;9.206;2023-07-20T06:13:34;20.50;99.90
16995;DHT22;8614;48.522;9.206;2023-07-20T06:16:00;20.50;99.90
16995;DHT22;8614;48.522;9.206;2023-07-20T06:18:28;20.60;99.90
16995;DHT22;8614;48.522;9.206;2023-07-20T06:20:56;20.80;99.90
16995;DHT22;8614;48.522;9.206;2023-07-20T06:23:24;20.80;99.90
16995;DHT22;8614;48.522;9.206;2023-07-20T06:25:51;20.90;99.90
16995;DHT22;8614;48.522;9.206;2023-07-20T06:28:17;21.00;99.90
16995;DHT22;8614;48.522;9.206;2023-07-20T06:30:44;21.10;99.90
16995;DHT22;8614;48.522;9.206;2023-07-20T06:33:11;21.20;99.90
16995;DHT22;8614;48.522;9.206;2023-07-20T06:35:41;21.30;99.90
16995;DHT22;8614;48.522;9.206;2023-07-20T06:38:08;21.40;99.90
16995;DHT22;8614;48.522;9.206;2023-07-20T06:40:36;21.40;99.90
16995;DHT22;8614;48.522;9.206;2023-07-20T06:43:02;21.50;99.90
16995;DHT22;8614;48.522;9.206;2023-07-20T06:45:30;21.60;99.90
16995;DHT22;8614;48.522;9.206;2023-07-20T06:47:56;21.70;99.90
16995;DHT22;8614;48.522;9.206;2023-07-20T06:50:23;21.80;99.90
16995;DHT22;8614;48.522;9.206;2023-07-20T06:52:50;22.00;99.90
16995;DHT22;8614;48.522;9.206;2023-07-20T06:55:17;22.30;99.90
16995;DHT22;8614;48.522;9.206;2023-07-20T06:57:45;22.50;99.90
16995;DHT22;8614;48.522;9.206;2023-07-20T07:00:13;22.70;99.90
16995;DHT22;8614;48.522;9.206;2023-07-20T07:02:40;22.90;99.90
16995;DHT22;8614;48.522;9.206;2023-07-20T07:05:07;22.90;99.90
16995;DHT22;8614;48.522;9.206;2023-07-20T07:07:34;23.00;99.90
16995;DHT22;8614;48.522;9.206;2023-07-20T07:10:01;23.20;99.90
16995;DHT22;8614;48.522;9.206;2023-07-20T07:12:30;23.40;99.90
16995;DHT22;8614;48.522;9.206;2023-07-20T07:14:58;23.70;99.90
16995;DHT22;8614;48.522;9.206;2023-07-20T07:17:25;24.00;99.90
16995;DHT22;8614;48.522;9.206;2023-07-20T07:19:52;24.10;99.90
16995;DHT22;8614;48.522;9.206;2023-07-20T07:22:20;24.30;99.90
16995;DHT22;8614;48.522;9.206;2023-07-20T07:24:47;24.40;99.90
16995;DHT22;8614;48.522;9.206;2023-07-20T07:27:14;24.30;99.90
16995;DHT22;8614;48.522;9.206;2023-07-20T07:29:41;24.50;99.90
16995;DHT22;8614;48.522;9.206;2023-07-20T07:32:10;24.70;99.90
16995;DHT22;8614;48.522;9.206;2023-07-20T07:34:37;24.90;99.90
16995;DHT22;8614;48.522;9.206;2023-07-20T07:37:04;24.90;99.90
16995;DHT22;8614;48.522;9.206;2023-07-20T07:39:31;24.90;99.90
16995;DHT22;8614;48.522;9.206;2023-07-20T07:41:58;25.10;99.90
16995;DHT22;8614;48.522;9.206;2023-07-20T07:44:26;24.90;99.90
16995;DHT22;8614;48.522;9.206;2023-07-20T07:46:52;25.10;99.90
16995;DHT22;8614;48.522;9.206;2023-07-20T07:49:21;25.20;99.90
16995;DHT22;8614;48.522;9.206;2023-07-20T07:51:47;25.70;99.90
16995;DHT22;8614;48.522;9.206;2023-07-20T07:54:14;26.30;99.90
16995;DHT22;8614;48.522;9.206;2023-07-20T07:56:41;27.10;99.60
16995;DHT22;8614;48.522;9.206;2023-07-20T07:59:09;27.60;98.90
16995;DHT22;8614;48.522;9.206;2023-07-20T08:01:36;27.60;99.20
16995;DHT22;8614;48.522;9.206;2023-07-20T08:04:03;28.10;97.90
16995;DHT22;8614;48.522;9.206;2023-07-20T08:06:32;28.30;97.10
16995;DHT22;8614;48.522;9.206;2023-07-20T08:08:59;28.50;97.00
16995;DHT22;8614;48.522;9.206;2023-07-20T08:11:26;28.50;96.50
16995;DHT22;8614;48.522;9.206;2023-07-20T08:13:56;28.50;96.00
16995;DHT22;8614;48.522;9.206;2023-07-20T08:16:23;28.30;96.30
16995;DHT22;8614;48.522;9.206;2023-07-20T08:18:49;28.20;96.20
16995;DHT22;8614;48.522;9.206;2023-07-20T08:21:16;28.30;97.10
16995;DHT22;8614;48.522;9.206;2023-07-20T08:23:44;28.40;95.70
16995;DHT22;8614;48.522;9.206;2023-07-20T08:26:11;28.60;94.70
16995;DHT22;8614;48.522;9.206;2023-07-20T08:28:38;28.60;95.20
16995;DHT22;8614;48.522;9.206;2023-07-20T08:31:06;28.60;94.90
16995;DHT22;8614;48.522;9.206;2023-07-20T08:33:33;28.80;94.70
16995;DHT22;8614;48.522;9.206;2023-07-20T08:36:00;28.60;93.50
16995;DHT22;8614;48.522;9.206;2023-07-20T08:38:29;28.60;94.10
16995;DHT22;8614;48.522;9.206;2023-07-20T08:40:57;28.20;94.20
16995;DHT22;8614;48.522;9.206;2023-07-20T08:43:27;28.20;95.00
16995;DHT22;8614;48.522;9.206;2023-07-20T08:45:55;28.70;94.80
16995;DHT22;8614;48.522;9.206;2023-07-20T08:48:22;28.70;93.30
16995;DHT22;8614;48.522;9.206;2023-07-20T08:50:52;28.80;93.90
16995;DHT22;8614;48.522;9.206;2023-07-20T08:53:20;28.70;93.20
16995;DHT22;8614;48.522;9.206;2023-07-20T08:55:50;28.90;93.70
16995;DHT22;8614;48.522;9.206;2023-07-20T08:58:18;29.20;93.40
16995;DHT22;8614;48.522;9.206;2023-07-20T09:00:45;29.20;93.00
16995;DHT22;8614;48.522;9.206;2023-07-20T09:03:16;29.30;93.10
16995;DHT22;8614;48.522;9.206;2023-07-20T09:05:45;29.50;92.70
16995;DHT22;8614;48.522;9.206;2023-07-20T09:08:11;29.70;91.90
16995;DHT22;8614;48.522;9.206;2023-07-20T09:10:38;29.50;91.20
16995;DHT22;8614;48.522;9.206;2023-07-20T09:13:05;29.70;92.60
16995;DHT22;8614;48.522;9.206;2023-07-20T09:15:33;29.70;91.40
16995;DHT22;8614;48.522;9.206;2023-07-20T09:18:01;29.80;91.00
16995;DHT22;8614;48.522;9.206;2023-07-20T09:20:31;30.00;91.30
16995;DHT22;8614;48.522;9.206;2023-07-20T09:22:58;30.10;90.90
16995;DHT22;8614;48.522;9.206;2023-07-20T09:25:27;30.20;90.60
16995;DHT22;8614;48.522;9.206;2023-07-20T09:27:54;30.30;90.50
16995;DHT22;8614;48.522;9.206;2023-07-20T09:30:25;30.30;90.90
16995;DHT22;8614;48.522;9.206;2023-07-20T09:32:53;30.30;89.50
16995;DHT22;8614;48.522;9.206;2023-07-20T09:35:22;30.20;90.10
16995;DHT22;8614;48.522;9.206;2023-07-20T09:37:50;30.00;88.80
16995;DHT22;8614;48.522;9.206;2023-07-20T09:40:19;29.80;90.40
16995;DHT22;8614;48.522;9.206;2023-07-20T09:42:46;30.10;90.90
16995;DHT22;8614;48.522;9.206;2023-07-20T09:45:13;30.10;90.90
16995;DHT22;8614;48.522;9.206;2023-07-20T09:47:40;30.50;90.70
16995;DHT22;8614;48.522;9.206;2023-07-20T09:50:09;30.20;88.20
16995;DHT22;8614;48.522;9.206;2023-07-20T09:52:41;30.30;89.70
16995;DHT22;8614;48.522;9.206;2023-07-20T09:55:10;30.40;86.50
16995;DHT22;8614;48.522;9.206;2023-07-20T09:57:38;30.60;86.50
16995;DHT22;8614;48.522;9.206;2023-07-20T10:00:07;30.60;85.00
16995;DHT22;8614;48.522;9.206;2023-07-20T10:02:42;29.90;88.00
16995;DHT22;8614;48.522;9.206;2023-07-20T10:05:11;29.30;89.00
16995;DHT22;8614;48.522;9.206;2023-07-20T10:07:43;29.20;88.30
16995;DHT22;8614;48.522;9.206;2023-07-20T10:10:11;29.30;88.30
16995;DHT22;8614;48.522;9.206;2023-07-20T10:12:41;29.60;86.60
16995;DHT22;8614;48.522;9.206;2023-07-20T10:15:11;29.50;86.20
16995;DHT22;8614;48.522;9.206;2023-07-20T10:17:47;29.30;87.70
16995;DHT22;8614;48.522;9.206;2023-07-20T10:20:19;29.50;86.80
16995;DHT22;8614;48.522;9.206;2023-07-20T10:22:50;29.50;86.60
16995;DHT22;8614;48.522;9.206;2023-07-20T10:25:20;29.60;87.40
16995;DHT22;8614;48.522;9.206;2023-07-20T10:27:49;29.70;84.60
16995;DHT22;8614;48.522;9.206;2023-07-20T10:30:18;29.80;85.70
16995;DHT22;8614;48.522;9.206;2023-07-20T10:32:45;29.90;85.60
16995;DHT22;8614;48.522;9.206;2023-07-20T10:35:13;30.10;84.10
16995;DHT22;8614;48.522;9.206;2023-07-20T10:37:49;30.20;84.00
16995;DHT22;8614;48.522;9.206;2023-07-20T10:40:30;30.20;84.20
16995;DHT22;8614;48.522;9.206;2023-07-20T10:42:59;30.20;85.10
16995;DHT22;8614;48.522;9.206;2023-07-20T10:45:41;30.00;84.30
16995;DHT22;8614;48.522;9.206;2023-07-20T10:48:15;29.80;84.00
16995;DHT22;8614;48.522;9.206;2023-07-20T10:50:43;29.10;85.70
16995;DHT22;8614;48.522;9.206;2023-07-20T10:53:15;28.40;88.10
16995;DHT22;8614;48.522;9.206;2023-07-20T10:55:43;28.10;85.30
16995;DHT22;8614;48.522;9.206;2023-07-20T10:58:12;27.70;88.10
16995;DHT22;8614;48.522;9.206;2023-07-20T11:00:56;27.60;84.10
16995;DHT22;8614;48.522;9.206;2023-07-20T11:03:32;27.90;85.00
16995;DHT22;8614;48.522;9.206;2023-07-20T11:05:59;28.00;84.30
16995;DHT22;8614;48.522;9.206;2023-07-20T11:08:47;28.30;84.20
16995;DHT22;8614;48.522;9.206;2023-07-20T11:11:24;28.50;83.20
16995;DHT22;8614;48.522;9.206;2023-07-20T11:13:59;28.40;80.70
16995;DHT22;8614;48.522;9.206;2023-07-20T11:16:37;28.20;83.60
16995;DHT22;8614;48.522;9.206;2023-07-20T11:19:05;28.50;85.10
16995;DHT22;8614;48.522;9.206;2023-07-20T11:21:37;28.80;85.20
16995;DHT22;8614;48.522;9.206;2023-07-20T11:24:07;28.80;85.00
16995;DHT22;8614;48.522;9.206;2023-07-20T11:26:42;28.80;85.00
16995;DHT22;8614;48.522;9.206;2023-07-20T11:29:09;28.90;83.90
16995;DHT22;8614;48.522;9.206;2023-07-20T11:31:37;28.90;83.70
16995;DHT22;8614;48.522;9.206;2023-07-20T11:34:04;29.00;84.80
16995;DHT22;8614;48.522;9.206;2023-07-20T11:36:31;28.80;80.70
16995;DHT22;8614;48.522;9.206;2023-07-20T11:38:59;28.30;84.10
16995;DHT22;8614;48.522;9.206;2023-07-20T11:41:27;28.10;84.80
16995;DHT22;8614;48.522;9.206;2023-07-20T11:43:54;28.20;84.10
16995;DHT22;8614;48.522;9.206;2023-07-20T11:46:21;28.30;85.00
16995;DHT22;8614;48.522;9.206;2023-07-20T11:48:48;28.50;83.10
16995;DHT22;8614;48.522;9.206;2023-07-20T11:51:15;28.50;81.50
16995;DHT22;8614;48.522;9.206;2023-07-20T11:53:43;28.70;82.80
16995;DHT22;8614;48.522;9.206;2023-07-20T11:56:11;28.70;82.90
16995;DHT22;8614;48.522;9.206;2023-07-20T11:58:43;28.50;83.80
16995;DHT22;8614;48.522;9.206;2023-07-20T12:01:12;28.50;84.70
16995;DHT22;8614;48.522;9.206;2023-07-20T12:03:39;28.40;83.60
16995;DHT22;8614;48.522;9.206;2023-07-20T12:06:07;28.30;83.50
16995;DHT22;8614;48.522;9.206;2023-07-20T12:08:34;28.20;82.80
16995;DHT22;8614;48.522;9.206;2023-07-20T12:11:01;28.10;83.10
16995;DHT22;8614;48.522;9.206;2023-07-20T12:13:36;27.80;84.10
16995;DHT22;8614;48.522;9.206;2023-07-20T12:16:09;27.60;85.50
16995;DHT22;8614;48.522;9.206;2023-07-20T12:18:37;27.70;86.00
16995;DHT22;8614;48.522;9.206;2023-07-20T12:21:05;27.80;84.80
16995;DHT22;8614;48.522;9.206;2023-07-20T12:23:45;27.90;85.90
16995;DHT22;8614;48.522;9.206;2023-07-20T12:42:24;27.60;86.10
16995;DHT22;8614;48.522;9.206;2023-07-20T12:44:51;27.80;84.60
16995;DHT22;8614;48.522;9.206;2023-07-20T12:47:18;27.70;82.70
16995;DHT22;8614;48.522;9.206;2023-07-20T12:49:45;27.50;85.10
16995;DHT22;8614;48.522;9.206;2023-07-20T12:52:12;27.30;80.70
16995;DHT22;8614;48.522;9.206;2023-07-20T12:54:39;27.00;86.60
16995;DHT22;8614;48.522;9.206;2023-07-20T12:57:06;26.90;85.50
16995;DHT22;8614;48.522;9.206;2023-07-20T12:59:34;26.70;85.90
16995;DHT22;8614;48.522;9.206;2023-07-20T13:02:01;26.50;87.70
16995;DHT22;8614;48.522;9.206;2023-07-20T13:04:28;26.50;84.20
16995;DHT22;8614;48.522;9.206;2023-07-20T13:06:55;26.60;87.80
16995;DHT22;8614;48.522;9.206;2023-07-20T13:09:24;26.70;85.50
16995;DHT22;8614;48.522;9.206;2023-07-20T13:11:51;26.80;86.60
16995;DHT22;8614;48.522;9.206;2023-07-20T13:14:18;26.90;85.10
16995;DHT22;8614;48.522;9.206;2023-07-20T13:16:46;27.20;85.40
16995;DHT22;8614;48.522;9.206;2023-07-20T13:19:13;27.30;83.60
16995;DHT22;8614;48.522;9.206;2023-07-20T13:21:39;27.30;81.80
16995;DHT22;8614;48.522;9.206;2023-07-20T13:24:06;27.30;83.80
16995;DHT22;8614;48.522;9.206;2023-07-20T13:26:33;27.00;81.50
16995;DHT22;8614;48.522;9.206;2023-07-20T13:29:00;26.90;83.90
16995;DHT22;8614;48.522;9.206;2023-07-20T13:31:26;26.80;86.00
16995;DHT22;8614;48.522;9.206;2023-07-20T13:33:55;26.90;84.80
16995;DHT22;8614;48.522;9.206;2023-07-20T13:36:23;26.90;85.20
16995;DHT22;8614;48.522;9.206;2023-07-20T13:38:50;26.70;86.30
16995;DHT22;8614;48.522;9.206;2023-07-20T13:41:16;26.70;86.50
16995;DHT22;8614;48.522;9.206;2023-07-20T13:43:43;26.70;86.20
16995;DHT22;8614;48.522;9.206;2023-07-20T13:46:11;26.70;86.70
16995;DHT22;8614;48.522;9.206;2023-07-20T13:48:41;26.70;84.70
16995;DHT22;8614;48.522;9.206;2023-07-20T13:51:09;26.60;82.50
16995;DHT22;8614;48.522;9.206;2023-07-20T13:53:36;26.60;84.10
16995;DHT22;8614;48.522;9.206;2023-07-20T13:56:02;26.70;85.90
16995;DHT22;8614;48.522;9.206;2023-07-20T13:58:30;26.70;85.00
16995;DHT22;8614;48.522;9.206;2023-07-20T14:00:56;26.70;85.20
16995;DHT22;8614;48.522;9.206;2023-07-20T14:03:23;26.70;82.00
16995;DHT22;8614;48.522;9.206;2023-07-20T14:05:50;26.50;81.90
16995;DHT22;8614;48.522;9.206;2023-07-20T14:08:18;26.30;82.90
16995;DHT22;8614;48.522;9.206;2023-07-20T14:10:45;26.50;83.60
16995;DHT22;8614;48.522;9.206;2023-07-20T14:13:12;26.50;83.10
16995;DHT22;8614;48.522;9.206;2023-07-20T14:15:39;26.40;81.70
16995;DHT22;8614;48.522;9.206;2023-07-20T14:18:05;26.50;83.60
16995;DHT22;8614;48.522;9.206;2023-07-20T14:20:32;26.50;83.50
16995;DHT22;8614;48.522;9.206;2023-07-20T14:22:59;26.50;82.30
16995;DHT22;8614;48.522;9.206;2023-07-20T14:25:27;26.50;82.40
16995;DHT22;8614;48.522;9.206;2023-07-20T14:27:54;26.50;86.60
16995;DHT22;8614;48.522;9.206;2023-07-20T14:30:21;26.60;84.90
16995;DHT22;8614;48.522;9.206;2023-07-20T14:32:47;26.60;83.50
16995;DHT22;8614;48.522;9.206;2023-07-20T14:35:15;26.50;82.70
16995;DHT22;8614;48.522;9.206;2023-07-20T14:37:41;26.40;80.70
16995;DHT22;8614;48.522;9.206;2023-07-20T14:40:09;26.30;82.00
16995;DHT22;8614;48.522;9.206;2023-07-20T14:42:38;26.30;85.00
16995;DHT22;8614;48.522;9.206;2023-07-20T14:45:05;26.30;88.30
16995;DHT22;8614;48.522;9.206;2023-07-20T14:47:33;26.30;83.50
16995;DHT22;8614;48.522;9.206;2023-07-20T14:50:00;26.30;83.50
16995;DHT22;8614;48.522;9.206;2023-07-20T14:52:27;26.40;87.60
16995;DHT22;8614;48.522;9.206;2023-07-20T14:54:55;26.40;84.00
16995;DHT22;8614;48.522;9.206;2023-07-20T14:57:22;26.30;83.70
16995;DHT22;8614;48.522;9.206;2023-07-20T14:59:50;26.30;83.20
16995;DHT22;8614;48.522;9.206;2023-07-20T15:02:18;26.20;83.70
16995;DHT22;8614;48.522;9.206;2023-07-20T15:04:49;26.20;87.30
16995;DHT22;8614;48.522;9.206;2023-07-20T15:07:16;26.20;82.70
16995;DHT22;8614;48.522;9.206;2023-07-20T15:09:43;26.20;83.20
16995;DHT22;8614;48.522;9.206;2023-07-20T15:12:10;26.20;84.50
16995;DHT22;8614;48.522;9.206;2023-07-20T15:14:40;26.20;85.50
16995;DHT22;8614;48.522;9.206;2023-07-20T15:17:08;26.30;86.50
16995;DHT22;8614;48.522;9.206;2023-07-20T15:19:35;26.30;84.10
16995;DHT22;8614;48.522;9.206;2023-07-20T15:22:03;26.30;85.50
16995;DHT22;8614;48.522;9.206;2023-07-20T15:24:31;26.30;85.40
16995;DHT22;8614;48.522;9.206;2023-07-20T15:26:58;26.20;84.60
16995;DHT22;8614;48.522;9.206;2023-07-20T15:29:25;26.20;86.90
16995;DHT22;8614;48.522;9.206;2023-07-20T15:31:52;26.10;86.30
16995;DHT22;8614;48.522;9.206;2023-07-20T15:34:20;26.10;87.60
16995;DHT22;8614;48.522;9.206;2023-07-20T15:36:47;26.10;86.00
16995;DHT22;8614;48.522;9.206;2023-07-20T15:39:14;26.10;85.90
16995;DHT22;8614;48.522;9.206;2023-07-20T15:41:40;26.10;86.50
16995;DHT22;8614;48.522;9.206;2023-07-20T15:44:07;26.10;82.80
16995;DHT22;8614;48.522;9.206;2023-07-20T15:46:45;26.00;82.80
16995;DHT22;8614;48.522;9.206;2023-07-20T15:49:12;26.00;83.60
16995;DHT22;8614;48.522;9.206;2023-07-20T15:51:41;26.00;83.60
16995;DHT22;8614;48.522;9.206;2023-07-20T15:54:09;26.00;84.40
16995;DHT22;8614;48.522;9.206;2023-07-20T15:56:36;26.10;86.90
16995;DHT22;8614;48.522;9.206;2023-07-20T15:59:04;26.10;88.10
16995;DHT22;8614;48.522;9.206;2023-07-20T16:01:31;26.00;85.10
16995;DHT22;8614;48.522;9.206;2023-07-20T16:03:58;26.00;88.60
16995;DHT22;8614;48.522;9.206;2023-07-20T16:06:25;26.00;87.70
16995;DHT22;8614;48.522;9.206;2023-07-20T16:08:54;25.90;87.20